createdAt,value
2023-05-08T00:02:22.660Z,63.94
2023-05-08T00:06:27.072Z,64.05
2023-05-08T00:10:30.791Z,64.08
2023-05-08T00:14:33.781Z,63.98
2023-05-08T00:18:38.756Z,63.77
2023-05-08T00:22:41.747Z,63.90
2023-05-08T00:26:45.791Z,64.07
2023-05-08T00:30:48.818Z,64.06
2023-05-08T00:34:53.292Z,64.11
2023-05-08T00:38:56.265Z,64.44
2023-05-08T00:42:59.453Z,64.16
2023-05-08T00:47:02.735Z,64.36
2023-05-08T00:51:09.561Z,64.75
2023-05-08T00:55:13.539Z,64.83
2023-05-08T00:59:18.569Z,65.01
2023-05-08T01:03:22.162Z,65.05
2023-05-08T01:07:27.243Z,65.01
2023-05-08T01:11:38.188Z,64.79
2023-05-08T01:15:48.589Z,64.87
2023-05-08T01:20:06.850Z,64.95
2023-05-08T01:24:33.980Z,65.15
2023-05-08T01:29:27.748Z,65.17
2023-05-08T01:33:38.000Z,65.16
2023-05-08T01:37:51.146Z,65.35
2023-05-08T01:42:01.792Z,65.44
2023-05-08T01:46:18.024Z,65.22
2023-05-08T01:50:27.170Z,65.39
2023-05-08T01:54:37.231Z,65.62
2023-05-08T01:58:44.184Z,65.67
2023-05-08T02:02:48.902Z,65.62
2023-05-08T02:06:53.906Z,65.59
2023-05-08T02:10:59.048Z,65.52
2023-05-08T02:15:03.295Z,65.72
2023-05-08T02:19:08.727Z,65.75
2023-05-08T02:23:14.674Z,65.44
2023-05-08T02:27:18.507Z,65.44
2023-05-08T02:31:22.883Z,65.44
2023-05-08T02:35:27.398Z,65.35
2023-05-08T02:39:35.217Z,65.60
2023-05-08T02:43:39.473Z,65.75
2023-05-08T02:47:49.580Z,65.82
2023-05-08T02:51:58.748Z,65.40
2023-05-08T02:56:11.401Z,65.73
2023-05-08T03:00:18.440Z,65.98
2023-05-08T03:04:28.175Z,66.13
2023-05-08T03:08:35.431Z,66.13
2023-05-08T03:12:44.214Z,65.89
2023-05-08T03:16:51.337Z,66.09
2023-05-08T03:20:59.116Z,66.17
2023-05-08T03:25:05.535Z,66.28
2023-05-08T03:29:15.785Z,66.16
2023-05-08T03:33:20.415Z,66.14
2023-05-08T03:37:23.714Z,65.89
2023-05-08T03:41:27.636Z,66.03
2023-05-08T03:45:36.882Z,66.11
2023-05-08T03:49:41.308Z,65.93
2023-05-08T03:53:45.133Z,65.92
2023-05-08T03:57:57.196Z,66.11
2023-05-08T04:02:16.714Z,66.29
2023-05-08T04:06:35.736Z,66.35
2023-05-08T04:10:52.053Z,66.30
2023-05-08T04:15:01.458Z,66.30
2023-05-08T04:19:12.017Z,66.26
2023-05-08T04:23:19.996Z,66.41
2023-05-08T04:27:25.149Z,66.47
2023-05-08T04:31:30.207Z,66.65
2023-05-08T04:35:35.233Z,66.55
2023-05-08T04:39:39.227Z,66.60
2023-05-08T04:43:43.387Z,66.72
2023-05-08T04:47:46.769Z,66.85
2023-05-08T04:51:51.826Z,66.98
2023-05-08T04:55:54.977Z,67.12
2023-05-08T04:59:58.559Z,66.81
2023-05-08T05:04:01.710Z,67.22
2023-05-08T05:08:06.614Z,67.33
2023-05-08T05:12:09.874Z,67.49
2023-05-08T05:16:13.540Z,67.21
2023-05-08T05:20:17.000Z,67.64
2023-05-08T05:24:22.021Z,67.58
2023-05-08T05:28:25.120Z,67.04
2023-05-08T05:32:32.286Z,67.20
2023-05-08T05:36:35.588Z,66.89
2023-05-08T05:40:40.603Z,66.65
2023-05-08T05:44:44.505Z,65.71
2023-05-08T05:48:47.763Z,65.87
2023-05-08T05:52:51.480Z,65.61
2023-05-08T05:56:56.873Z,65.11
2023-05-08T06:01:01.469Z,64.25
2023-05-08T06:05:07.010Z,63.83
2023-05-08T06:09:10.082Z,63.58
2023-05-08T06:13:14.514Z,62.71
2023-05-08T06:17:17.592Z,62.44
2023-05-08T06:21:22.004Z,62.22
2023-05-08T06:25:25.269Z,61.93
2023-05-08T06:29:29.695Z,61.65
2023-05-08T06:33:32.701Z,61.51
2023-05-08T06:37:36.041Z,61.90
2023-05-08T06:41:39.256Z,61.08
2023-05-08T06:45:44.678Z,60.46
2023-05-08T06:49:47.718Z,60.69
2023-05-08T06:53:50.743Z,60.32
2023-05-08T06:57:53.718Z,59.62
2023-05-08T07:01:58.696Z,59.20
2023-05-08T07:06:01.731Z,59.10
2023-05-08T07:10:05.976Z,58.65
2023-05-08T07:14:10.764Z,57.73
2023-05-08T07:18:15.175Z,57.13
2023-05-08T07:22:18.191Z,56.78
2023-05-08T07:26:21.557Z,56.47
2023-05-08T07:30:24.802Z,55.97
2023-05-08T07:34:29.704Z,56.37
2023-05-08T07:38:32.727Z,56.00
2023-05-08T07:42:40.614Z,55.47
2023-05-08T07:46:43.641Z,55.57
2023-05-08T07:50:50.170Z,56.19
2023-05-08T07:54:53.172Z,54.81
2023-05-08T07:58:56.256Z,53.84
2023-05-08T08:02:59.364Z,54.89
2023-05-08T08:07:03.918Z,54.91
2023-05-08T08:11:07.148Z,54.11
2023-05-08T08:15:11.261Z,54.41
2023-05-08T08:19:14.379Z,54.23
2023-05-08T08:23:18.855Z,53.41
2023-05-08T08:27:21.828Z,53.40
2023-05-08T08:31:24.911Z,54.40
2023-05-08T08:35:29.457Z,53.21
2023-05-08T08:39:35.553Z,52.62
2023-05-08T08:43:43.279Z,53.13
2023-05-08T08:47:48.767Z,52.62
2023-05-08T08:51:54.244Z,53.19
2023-05-08T08:56:02.228Z,53.26
2023-05-08T09:00:08.566Z,52.95
2023-05-08T09:04:11.986Z,52.57
2023-05-08T09:08:15.203Z,53.28
2023-05-08T09:12:19.667Z,52.91
2023-05-08T09:16:23.165Z,51.87
2023-05-08T09:20:26.861Z,52.11
2023-05-08T09:24:57.971Z,51.46
2023-05-08T09:29:16.518Z,51.58
2023-05-08T09:33:19.683Z,51.23
2023-05-08T09:37:22.955Z,51.67
2023-05-08T09:41:26.704Z,51.76
2023-05-08T09:45:32.871Z,51.83
2023-05-08T09:49:35.976Z,50.96
2023-05-08T09:53:39.201Z,50.85
2023-05-08T09:57:53.579Z,51.03
2023-05-08T10:01:58.203Z,50.86
2023-05-08T10:06:13.496Z,51.11
2023-05-08T10:10:26.217Z,51.15
2023-05-08T10:14:29.182Z,50.42
2023-05-08T10:18:36.604Z,50.58
2023-05-08T10:22:44.416Z,50.18
2023-05-08T10:27:07.126Z,49.50
2023-05-08T10:31:13.511Z,49.65
2023-05-08T10:35:18.178Z,49.47
2023-05-08T10:39:22.743Z,49.52
2023-05-08T10:43:26.080Z,49.08
2023-05-08T10:47:34.593Z,49.42
2023-05-08T10:51:45.394Z,49.56
2023-05-08T10:55:52.266Z,49.21
2023-05-08T10:59:55.297Z,49.46
2023-05-08T11:03:58.428Z,48.40
2023-05-08T11:08:02.979Z,48.52
2023-05-08T11:12:09.591Z,48.62
2023-05-08T11:16:12.729Z,48.48
2023-05-08T11:20:15.917Z,48.24
2023-05-08T11:24:20.625Z,47.23
2023-05-08T11:28:23.833Z,47.32
2023-05-08T11:32:58.013Z,47.19
2023-05-08T11:37:04.078Z,46.85
2023-05-08T11:41:11.273Z,47.17
2023-05-08T11:45:15.232Z,47.46
2023-05-08T11:49:24.660Z,47.49
2023-05-08T11:53:30.529Z,46.85
2023-05-08T11:57:35.131Z,46.95
2023-05-08T12:01:38.437Z,46.94
2023-05-08T12:05:42.006Z,45.35
2023-05-08T12:09:45.028Z,46.16
2023-05-08T12:13:51.909Z,46.33
2023-05-08T12:18:02.701Z,45.87
2023-05-08T12:22:05.826Z,46.30
2023-05-08T12:26:10.041Z,46.09
2023-05-08T12:30:17.152Z,45.57
2023-05-08T12:34:21.455Z,45.87
2023-05-08T12:38:27.395Z,46.39
2023-05-08T12:42:42.977Z,45.57
2023-05-08T12:46:52.807Z,45.73
2023-05-08T12:50:56.100Z,45.70
2023-05-08T12:54:59.221Z,45.25
2023-05-08T12:59:02.214Z,45.24
2023-05-08T13:03:07.756Z,45.13
2023-05-08T13:07:10.797Z,44.37
2023-05-08T13:11:13.889Z,44.37
2023-05-08T13:15:17.071Z,44.28
2023-05-08T13:19:21.502Z,44.37
2023-05-08T13:23:24.695Z,44.60
2023-05-08T13:27:27.776Z,45.59
2023-05-08T13:31:30.966Z,45.85
2023-05-08T13:35:36.210Z,44.72
2023-05-08T13:39:39.204Z,44.49
2023-05-08T13:43:42.512Z,44.97
2023-05-08T13:47:46.508Z,43.99
2023-05-08T13:51:56.472Z,44.81
2023-05-08T13:56:00.024Z,44.15
2023-05-08T14:00:04.404Z,45.06
2023-05-08T14:04:10.629Z,44.58
2023-05-08T14:08:15.238Z,44.47
2023-05-08T14:12:18.263Z,44.92
2023-05-08T14:16:21.508Z,44.95
2023-05-08T14:20:24.526Z,44.59
2023-05-08T14:24:29.039Z,44.67
2023-05-08T14:28:32.064Z,44.37
2023-05-08T14:32:35.455Z,44.12
2023-05-08T14:36:38.581Z,44.54
2023-05-08T14:40:43.023Z,44.86
2023-05-08T14:44:46.089Z,44.93
2023-05-08T14:48:49.157Z,44.46
2023-05-08T14:52:52.187Z,44.12
2023-05-08T14:56:56.692Z,44.59
2023-05-08T15:00:59.741Z,44.06
2023-05-08T15:05:07.961Z,44.52
2023-05-08T15:09:11.427Z,44.48
2023-05-08T15:13:15.918Z,44.66
2023-05-08T15:17:19.102Z,45.22
2023-05-08T15:21:26.195Z,45.05
2023-05-08T15:25:29.224Z,44.65
2023-05-08T15:29:33.791Z,44.56
2023-05-08T15:33:36.961Z,44.77
2023-05-08T15:37:40.054Z,44.68
2023-05-08T15:41:43.043Z,44.24
2023-05-08T15:45:47.512Z,43.82
2023-05-08T15:49:50.488Z,44.27
2023-05-08T15:53:53.624Z,44.52
2023-05-08T15:57:56.613Z,44.27
2023-05-08T16:02:01.063Z,44.41
2023-05-08T16:06:04.248Z,44.79
2023-05-08T16:10:08.749Z,44.96
2023-05-08T16:14:11.740Z,45.24
2023-05-08T16:18:16.384Z,45.78
2023-05-08T16:22:19.361Z,45.46
2023-05-08T16:26:22.715Z,45.15
2023-05-08T16:30:25.705Z,45.04
2023-05-08T16:34:30.435Z,44.95
2023-05-08T16:38:33.430Z,45.03
2023-05-08T16:42:37.103Z,45.11
2023-05-08T16:46:40.140Z,44.98
2023-05-08T16:50:44.623Z,45.59
2023-05-08T16:54:47.619Z,45.72
2023-05-08T16:58:50.718Z,46.17
2023-05-08T17:02:53.806Z,46.44
2023-05-08T17:07:00.000Z,46.72
2023-05-08T17:11:03.279Z,46.61
2023-05-08T17:15:07.472Z,46.93
2023-05-08T17:19:10.607Z,47.35
2023-05-08T17:23:15.013Z,47.52
2023-05-08T17:27:18.781Z,47.87
2023-05-08T17:31:21.849Z,47.87
2023-05-08T17:35:25.352Z,48.08
2023-05-08T17:39:29.914Z,48.20
2023-05-08T17:43:32.889Z,48.32
2023-05-08T17:47:37.631Z,48.45
2023-05-08T17:51:41.202Z,48.16
2023-05-08T17:55:45.625Z,47.88
2023-05-08T17:59:48.605Z,47.58
2023-05-08T18:03:54.000Z,47.54
2023-05-08T18:07:57.157Z,47.50
2023-05-08T18:12:02.635Z,47.39
2023-05-08T18:16:05.819Z,47.32
2023-05-08T18:20:10.117Z,47.23
2023-05-08T18:24:13.099Z,47.74
2023-05-08T18:28:17.514Z,48.00
2023-05-08T18:32:20.512Z,48.19
2023-05-08T18:36:23.835Z,48.06
2023-05-08T18:40:26.850Z,48.29
2023-05-08T18:44:31.225Z,48.61
2023-05-08T18:48:34.172Z,48.84
2023-05-08T18:52:37.179Z,49.03
2023-05-08T18:56:40.214Z,49.10
2023-05-08T19:00:44.733Z,49.00
2023-05-08T19:04:47.736Z,48.93
2023-05-08T19:08:52.169Z,49.33
2023-05-08T19:12:55.367Z,49.16
2023-05-08T19:16:59.909Z,49.27
2023-05-08T19:21:03.116Z,49.22
2023-05-08T19:25:07.037Z,49.65
2023-05-08T19:29:10.010Z,49.61
2023-05-08T19:33:14.572Z,49.68
2023-05-08T19:37:17.802Z,49.69
2023-05-08T19:41:21.039Z,49.83
2023-05-08T19:45:24.060Z,50.09
2023-05-08T19:49:28.594Z,50.36
2023-05-08T19:53:31.574Z,50.57
2023-05-08T19:57:34.644Z,50.66
2023-05-08T20:01:37.767Z,50.60
2023-05-08T20:05:42.228Z,50.83
2023-05-08T20:09:45.462Z,50.37
2023-05-08T20:13:48.509Z,50.53
2023-05-08T20:17:51.551Z,50.76
2023-05-08T20:21:56.261Z,50.85
2023-05-08T20:25:59.297Z,50.82
2023-05-08T20:30:02.430Z,51.04
2023-05-08T20:34:05.428Z,51.15
2023-05-08T20:38:10.066Z,51.41
2023-05-08T20:42:13.127Z,51.50
2023-05-08T20:46:16.408Z,51.31
2023-05-08T20:50:19.417Z,51.44
2023-05-08T20:54:23.859Z,51.68
2023-05-08T20:58:26.924Z,51.86
2023-05-08T21:02:30.203Z,51.86
2023-05-08T21:06:33.207Z,51.97
2023-05-08T21:10:37.694Z,52.11
2023-05-08T21:14:40.733Z,52.24
2023-05-08T21:18:43.791Z,52.33
2023-05-08T21:22:47.136Z,52.07
2023-05-08T21:26:52.181Z,52.09
2023-05-08T21:30:55.194Z,52.75
2023-05-08T21:34:58.247Z,52.62
2023-05-08T21:39:01.405Z,52.37
2023-05-08T21:43:05.910Z,52.74
2023-05-08T21:47:08.926Z,52.69
2023-05-08T21:51:12.066Z,52.83
2023-05-08T21:55:15.212Z,52.96
2023-05-08T21:59:20.309Z,53.08
2023-05-08T22:03:23.416Z,53.21
2023-05-08T22:07:27.073Z,53.39
2023-05-08T22:11:31.537Z,53.67
2023-05-08T22:15:36.233Z,53.72
2023-05-08T22:19:39.524Z,53.60
2023-05-08T22:23:42.755Z,53.86
2023-05-08T22:27:46.444Z,54.05
2023-05-08T22:31:51.030Z,54.15
2023-05-08T22:35:54.010Z,54.34
2023-05-08T22:39:57.291Z,54.32
2023-05-08T22:44:00.650Z,54.46
2023-05-08T22:48:05.511Z,54.60
2023-05-08T22:52:09.137Z,54.84
2023-05-08T22:56:12.430Z,54.67
2023-05-08T23:00:16.487Z,54.82
2023-05-08T23:04:21.591Z,54.98
2023-05-08T23:08:24.678Z,55.15
2023-05-08T23:12:27.726Z,54.94
2023-05-08T23:16:30.914Z,55.35
2023-05-08T23:20:35.489Z,55.31
2023-05-08T23:24:38.868Z,55.37
2023-05-08T23:28:41.911Z,55.58
2023-05-08T23:32:44.995Z,55.74
2023-05-08T23:36:50.845Z,55.77
2023-05-08T23:40:54.017Z,55.76
2023-05-08T23:44:57.255Z,56.07
2023-05-08T23:49:00.345Z,56.24
2023-05-08T23:53:04.854Z,56.24
2023-05-08T23:57:07.887Z,56.28
